createdAt,value
2022-10-04T00:01:22.599Z,102027.84
2022-10-04T00:04:01.295Z,102023.44
2022-10-04T00:06:27.686Z,102033.19
2022-10-04T00:08:58.061Z,102028.78
2022-10-04T00:11:35.501Z,102022.59
2022-10-04T00:14:06.660Z,102021.72
2022-10-04T00:16:34.864Z,102022.53
2022-10-04T00:19:21.431Z,102013.75
2022-10-04T00:22:12.410Z,102017.22
2022-10-04T00:24:58.590Z,102013.63
2022-10-04T00:27:26.069Z,102011.06
2022-10-04T00:30:04.296Z,102011.00
2022-10-04T00:32:30.569Z,102005.63
2022-10-04T00:34:58.009Z,102009.22
2022-10-04T00:37:25.452Z,102007.38
2022-10-04T00:40:05.097Z,102005.69
2022-10-04T00:42:36.211Z,102008.47
2022-10-04T00:45:07.380Z,102019.06
2022-10-04T00:47:56.309Z,102014.84
2022-10-04T00:50:36.893Z,102017.66
2022-10-04T00:53:10.510Z,102010.66
2022-10-04T00:55:46.914Z,102010.75
2022-10-04T00:58:18.776Z,102012.59
2022-10-04T01:00:48.156Z,102008.22
2022-10-04T01:03:18.465Z,102008.31
2022-10-04T01:05:47.271Z,102000.44
2022-10-04T01:08:22.801Z,102006.63
2022-10-04T01:10:55.637Z,102000.44
2022-10-04T01:13:30.195Z,102009.19
2022-10-04T01:16:17.229Z,101993.31
2022-10-04T01:18:43.691Z,101983.59
2022-10-04T01:21:22.171Z,101988.00
2022-10-04T01:23:48.422Z,101978.25
2022-10-04T01:26:29.081Z,101977.38
2022-10-04T01:28:55.307Z,101973.84
2022-10-04T01:31:22.150Z,101968.63
2022-10-04T01:33:48.547Z,101981.88
2022-10-04T01:36:15.115Z,101969.50
2022-10-04T01:38:41.617Z,101963.38
2022-10-04T01:41:08.549Z,101964.22
2022-10-04T01:43:37.736Z,101969.53
2022-10-04T01:46:07.454Z,101966.84
2022-10-04T01:48:36.599Z,101953.56
2022-10-04T01:51:12.963Z,101961.47
2022-10-04T01:53:45.545Z,101954.38
2022-10-04T01:56:17.632Z,101952.56
2022-10-04T01:58:46.743Z,101953.41
2022-10-04T02:01:34.740Z,101949.88
2022-10-04T02:04:04.887Z,101945.44
2022-10-04T02:06:36.019Z,101949.81
2022-10-04T02:09:07.582Z,101945.41
2022-10-04T02:11:37.525Z,101949.81
2022-10-04T02:14:05.377Z,101941.88
2022-10-04T02:16:35.794Z,101944.53
2022-10-04T02:19:03.503Z,101951.56
2022-10-04T02:21:30.410Z,101937.44
2022-10-04T02:23:57.200Z,101943.59
2022-10-04T02:26:23.553Z,101948.88
2022-10-04T02:28:51.103Z,101939.25
2022-10-04T02:31:39.566Z,101933.94
2022-10-04T02:34:06.024Z,101931.31
2022-10-04T02:36:33.229Z,101933.13
2022-10-04T02:39:00.733Z,101929.63
2022-10-04T02:41:35.651Z,101928.69
2022-10-04T02:44:01.871Z,101923.44
2022-10-04T02:46:31.547Z,101910.25
2022-10-04T02:49:00.084Z,101914.66
2022-10-04T02:51:49.499Z,101910.25
2022-10-04T02:54:18.594Z,101904.09
2022-10-04T02:56:44.977Z,101902.38
2022-10-04T02:59:16.340Z,101915.59
2022-10-04T03:01:56.310Z,101912.06
2022-10-04T03:04:24.065Z,101908.59
2022-10-04T03:06:50.545Z,101908.59
2022-10-04T03:09:18.851Z,101908.63
2022-10-04T03:11:46.579Z,101906.88
2022-10-04T03:14:15.865Z,101907.78
2022-10-04T03:16:43.434Z,101912.22
2022-10-04T03:19:10.806Z,101906.94
2022-10-04T03:21:38.392Z,101906.97
2022-10-04T03:24:06.174Z,101910.56
2022-10-04T03:26:38.818Z,101907.91
2022-10-04T03:29:10.118Z,101906.13
2022-10-04T03:31:50.012Z,101905.28
2022-10-04T03:34:21.295Z,101901.78
2022-10-04T03:36:49.231Z,101907.94
2022-10-04T03:39:20.781Z,101907.94
2022-10-04T03:41:47.615Z,101905.28
2022-10-04T03:44:16.223Z,101904.41
2022-10-04T03:46:43.685Z,101903.56
2022-10-04T03:49:11.513Z,101902.69
2022-10-04T03:51:38.318Z,101900.88
2022-10-04T03:54:16.708Z,101889.41
2022-10-04T03:56:42.996Z,101892.06
2022-10-04T03:59:13.913Z,101900.00
2022-10-04T04:01:43.970Z,101895.63
2022-10-04T04:04:19.008Z,101897.41
2022-10-04T04:06:48.370Z,101902.69
2022-10-04T04:09:19.393Z,101900.03
2022-10-04T04:11:48.911Z,101903.53
2022-10-04T04:14:20.066Z,101904.44
2022-10-04T04:16:47.031Z,101902.63
2022-10-04T04:19:15.596Z,101904.41
2022-10-04T04:21:42.784Z,101900.84
2022-10-04T04:24:23.776Z,101896.50
2022-10-04T04:26:53.110Z,101899.13
2022-10-04T04:29:42.696Z,101879.72
2022-10-04T04:32:15.834Z,101872.66
2022-10-04T04:34:49.922Z,101868.22
2022-10-04T04:37:16.211Z,101862.91
2022-10-04T04:39:44.876Z,101870.81
2022-10-04T04:42:16.414Z,101878.78
2022-10-04T04:44:53.766Z,101881.44
2022-10-04T04:47:33.106Z,101882.31
2022-10-04T04:50:04.077Z,101887.59
2022-10-04T04:52:31.713Z,101878.75
2022-10-04T04:54:58.303Z,101882.31
2022-10-04T04:57:24.999Z,101882.28
2022-10-04T04:59:56.951Z,101882.28
2022-10-04T05:02:36.762Z,101887.50
2022-10-04T05:05:21.351Z,101886.56
2022-10-04T05:07:47.629Z,101883.03
2022-10-04T05:10:30.218Z,101884.75
2022-10-04T05:12:56.916Z,101885.59
2022-10-04T05:15:23.468Z,101886.47
2022-10-04T05:17:49.767Z,101880.28
2022-10-04T05:20:16.162Z,101882.06
2022-10-04T05:22:45.859Z,101882.94
2022-10-04T05:25:21.772Z,101879.34
2022-10-04T05:27:49.795Z,101874.94
2022-10-04T05:30:33.147Z,101874.00
2022-10-04T05:33:04.693Z,101874.00
2022-10-04T05:35:41.745Z,101877.53
2022-10-04T05:38:16.711Z,101871.41
2022-10-04T05:41:06.685Z,101872.31
2022-10-04T05:43:53.263Z,101864.38
2022-10-04T05:46:26.900Z,101862.63
2022-10-04T05:48:54.962Z,101867.94
2022-10-04T05:51:26.588Z,101867.94
2022-10-04T05:53:54.239Z,101872.38
2022-10-04T05:56:23.501Z,101876.84
2022-10-04T05:58:49.741Z,101872.50
2022-10-04T06:01:42.931Z,101875.19
2022-10-04T06:04:09.401Z,101876.16
2022-10-04T06:06:40.992Z,101872.69
2022-10-04T06:09:21.681Z,101865.63
2022-10-04T06:12:06.008Z,101862.13
2022-10-04T06:14:41.619Z,101863.97
2022-10-04T06:17:21.374Z,101867.44
2022-10-04T06:19:55.179Z,101857.81
2022-10-04T06:22:22.690Z,101856.97
2022-10-04T06:24:56.262Z,101860.53
2022-10-04T06:27:33.300Z,101864.06
2022-10-04T06:30:02.611Z,101850.00
2022-10-04T06:32:28.847Z,101863.22
2022-10-04T06:35:07.324Z,101854.50
2022-10-04T06:37:33.597Z,101859.84
2022-10-04T06:40:06.122Z,101860.75
2022-10-04T06:42:39.141Z,101862.56
2022-10-04T06:45:21.253Z,101872.34
2022-10-04T06:48:02.095Z,101868.84
2022-10-04T06:50:50.474Z,101854.72
2022-10-04T06:53:35.281Z,101864.47
2022-10-04T06:56:07.575Z,101870.69
2022-10-04T06:58:43.032Z,101874.28
2022-10-04T07:01:19.278Z,101877.00
2022-10-04T07:03:50.535Z,101877.91
2022-10-04T07:06:22.968Z,101870.91
2022-10-04T07:08:50.974Z,101875.31
2022-10-04T07:11:23.955Z,101871.81
2022-10-04T07:14:08.746Z,101875.38
2022-10-04T07:16:43.294Z,101878.09
2022-10-04T07:19:28.321Z,101867.56
2022-10-04T07:21:54.550Z,101874.66
2022-10-04T07:24:26.933Z,101879.03
2022-10-04T07:26:54.932Z,101874.69
2022-10-04T07:29:28.118Z,101876.53
2022-10-04T07:32:07.052Z,101881.00
2022-10-04T07:34:36.752Z,101886.34
2022-10-04T07:37:12.577Z,101882.06
2022-10-04T07:39:48.054Z,101882.16
2022-10-04T07:42:32.755Z,101881.44
2022-10-04T07:45:10.866Z,101883.34
2022-10-04T07:47:37.206Z,101883.38
2022-10-04T07:50:22.058Z,101877.22
2022-10-04T07:53:09.532Z,101882.53
2022-10-04T07:55:38.974Z,101882.59
2022-10-04T07:58:24.030Z,101888.84
2022-10-04T08:01:07.296Z,101879.19
2022-10-04T08:03:57.275Z,101880.09
2022-10-04T08:06:33.558Z,101876.59
2022-10-04T08:09:16.987Z,101876.66
2022-10-04T08:11:50.004Z,101879.38
2022-10-04T08:14:19.256Z,101875.88
2022-10-04T08:17:21.272Z,101877.59
2022-10-04T08:19:53.419Z,101866.09
2022-10-04T08:22:38.507Z,101863.44
2022-10-04T08:25:14.989Z,101869.63
2022-10-04T08:28:12.476Z,101874.09
2022-10-04T08:30:49.087Z,101868.81
2022-10-04T08:33:24.308Z,101864.44
2022-10-04T08:36:02.602Z,101866.13
2022-10-04T08:38:36.296Z,101868.84
2022-10-04T08:41:15.059Z,101864.47
2022-10-04T08:43:59.779Z,101858.28
2022-10-04T08:46:26.092Z,101856.53
2022-10-04T08:49:10.759Z,101860.09
2022-10-04T08:51:55.698Z,101865.44
2022-10-04T08:54:43.821Z,101860.16
2022-10-04T08:57:22.314Z,101861.97
2022-10-04T08:59:48.538Z,101855.81
2022-10-04T09:02:17.946Z,101855.00
2022-10-04T09:05:02.622Z,101848.84
2022-10-04T09:07:49.366Z,101852.41
2022-10-04T09:10:15.609Z,101844.50
2022-10-04T09:12:44.793Z,101851.59
2022-10-04T09:15:11.044Z,101848.94
2022-10-04T09:17:42.077Z,101847.19
2022-10-04T09:20:39.403Z,101848.06
2022-10-04T09:23:25.215Z,101851.63
2022-10-04T09:26:00.638Z,101848.97
2022-10-04T09:28:29.967Z,101852.50
2022-10-04T09:31:06.279Z,101848.97
2022-10-04T09:33:41.653Z,101852.53
2022-10-04T09:36:28.622Z,101849.03
2022-10-04T09:39:29.431Z,101841.94
2022-10-04T09:42:03.211Z,101852.56
2022-10-04T09:44:29.450Z,101853.47
2022-10-04T09:47:24.871Z,101849.00
2022-10-04T09:50:10.911Z,101857.00
2022-10-04T09:52:37.185Z,101857.88
2022-10-04T09:55:09.919Z,101842.78
2022-10-04T09:57:45.027Z,101833.03
2022-10-04T10:00:11.255Z,101833.88
2022-10-04T10:02:38.672Z,101830.34
2022-10-04T10:05:23.716Z,101833.84
2022-10-04T10:07:53.360Z,101833.00
2022-10-04T10:10:48.190Z,101836.59
2022-10-04T10:13:39.164Z,101836.56
2022-10-04T10:16:05.714Z,101822.44
2022-10-04T10:18:31.965Z,101826.84
2022-10-04T10:21:10.451Z,101826.81
2022-10-04T10:23:50.657Z,101819.69
2022-10-04T10:26:17.040Z,101818.75
2022-10-04T10:28:58.737Z,101817.84
2022-10-04T10:31:51.235Z,101818.66
2022-10-04T10:34:36.163Z,101811.53
2022-10-04T10:37:38.059Z,101806.19
2022-10-04T10:40:28.184Z,101793.72
2022-10-04T10:43:09.456Z,101797.19
2022-10-04T10:45:59.437Z,101792.66
2022-10-04T10:48:35.569Z,101798.72
2022-10-04T10:51:10.874Z,101803.84
2022-10-04T10:53:48.049Z,101811.56
2022-10-04T10:56:32.544Z,101805.03
2022-10-04T10:59:17.212Z,101800.31
2022-10-04T11:01:55.722Z,101803.06
2022-10-04T11:04:37.077Z,101792.88
2022-10-04T11:07:20.535Z,101793.38
2022-10-04T11:09:46.812Z,101792.72
2022-10-04T11:12:25.384Z,101782.97
2022-10-04T11:14:54.472Z,101778.50
2022-10-04T11:17:39.453Z,101769.19
2022-10-04T11:20:15.509Z,101761.06
2022-10-04T11:23:00.497Z,101763.44
2022-10-04T11:25:50.653Z,101756.91
2022-10-04T11:28:36.256Z,101745.22
2022-10-04T11:31:11.648Z,101760.22
2022-10-04T11:33:58.154Z,101756.72
2022-10-04T11:36:50.604Z,101767.91
2022-10-04T11:39:23.032Z,101775.31
2022-10-04T11:42:14.023Z,101776.50
2022-10-04T11:44:49.043Z,101759.03
2022-10-04T11:47:18.055Z,101762.25
2022-10-04T11:49:44.333Z,101751.66
2022-10-04T11:52:25.963Z,101753.97
2022-10-04T11:55:11.155Z,101757.16
2022-10-04T11:57:48.172Z,101750.28
2022-10-04T12:00:20.707Z,101753.59
2022-10-04T12:03:07.852Z,101751.91
2022-10-04T12:05:49.844Z,101737.28
2022-10-04T12:08:33.265Z,101739.09
2022-10-04T12:10:59.557Z,101731.09
2022-10-04T12:13:25.821Z,101736.97
2022-10-04T12:16:05.269Z,101718.69
2022-10-04T12:18:46.618Z,101718.59
2022-10-04T12:21:28.795Z,101703.28
2022-10-04T12:23:58.055Z,101709.72
2022-10-04T12:26:39.662Z,101711.09
2022-10-04T12:29:24.200Z,101704.47
2022-10-04T12:31:53.680Z,101705.28
2022-10-04T12:34:27.822Z,101698.84
2022-10-04T12:37:00.184Z,101689.38
2022-10-04T12:39:32.575Z,101695.78
2022-10-04T12:42:18.740Z,101692.53
2022-10-04T12:44:57.233Z,101694.25
2022-10-04T12:47:56.042Z,101697.59
2022-10-04T12:50:40.987Z,101686.88
2022-10-04T12:53:46.288Z,101694.19
2022-10-04T12:56:21.735Z,101695.91
2022-10-04T12:59:01.200Z,101699.25
2022-10-04T13:01:27.480Z,101695.53
2022-10-04T13:03:53.726Z,101702.69
2022-10-04T13:06:24.121Z,101706.69
2022-10-04T13:09:11.091Z,101704.75
2022-10-04T13:12:06.589Z,101714.44
2022-10-04T13:14:38.877Z,101700.28
2022-10-04T13:17:32.964Z,101698.41
2022-10-04T13:20:19.383Z,101683.19
2022-10-04T13:23:00.609Z,101677.69
2022-10-04T13:25:38.008Z,101689.75
2022-10-04T13:28:24.659Z,101674.56
2022-10-04T13:30:58.518Z,101675.97
2022-10-04T13:33:26.411Z,101668.16
2022-10-04T13:36:08.812Z,101657.22
2022-10-04T13:38:55.938Z,101661.16
2022-10-04T13:41:40.760Z,101651.59
2022-10-04T13:44:09.683Z,101640.06
2022-10-04T13:46:47.119Z,101634.88
2022-10-04T13:49:19.130Z,101632.38
2022-10-04T13:52:24.333Z,101640.22
2022-10-04T13:55:35.475Z,101645.53
2022-10-04T13:58:34.180Z,101636.75
2022-10-04T14:01:48.129Z,101631.63
2022-10-04T14:04:34.443Z,101636.97
2022-10-04T14:07:19.574Z,101619.06
2022-10-04T14:09:59.615Z,101606.00
2022-10-04T14:13:21.632Z,101599.78
2022-10-04T14:16:06.375Z,101596.06
2022-10-04T14:19:09.569Z,101579.97
2022-10-04T14:22:07.354Z,101580.94
2022-10-04T14:24:39.845Z,101589.59
2022-10-04T14:27:23.446Z,101589.06
2022-10-04T14:30:11.768Z,101589.19
2022-10-04T14:32:56.447Z,101592.03
2022-10-04T14:35:44.499Z,101598.38
2022-10-04T14:38:24.550Z,101591.56
2022-10-04T14:41:05.033Z,101593.66
2022-10-04T14:43:46.560Z,101603.00
2022-10-04T14:46:22.744Z,101590.78
2022-10-04T14:48:49.061Z,101591.88
2022-10-04T14:51:19.331Z,101595.63
2022-10-04T14:54:00.340Z,101599.53
2022-10-04T14:56:35.119Z,101603.13
2022-10-04T14:59:01.377Z,101614.75
2022-10-04T15:01:28.528Z,101598.00
2022-10-04T15:03:58.033Z,101598.09
2022-10-04T15:06:40.177Z,101598.19
2022-10-04T15:09:52.491Z,101594.59
2022-10-04T15:13:08.799Z,101603.59
2022-10-04T15:15:31.959Z,101595.91
2022-10-04T15:18:03.358Z,101593.44
2022-10-04T15:20:32.349Z,101595.28
2022-10-04T15:23:03.979Z,101594.50
2022-10-04T15:25:38.201Z,101600.88
2022-10-04T15:28:08.068Z,101602.78
2022-10-04T15:30:49.319Z,101600.16
2022-10-04T15:33:20.484Z,101582.44
2022-10-04T15:35:50.703Z,101570.94
2022-10-04T15:38:16.938Z,101567.47
2022-10-04T15:40:58.337Z,101565.75
2022-10-04T15:43:27.360Z,101557.81
2022-10-04T15:46:12.792Z,101547.22
2022-10-04T15:48:56.409Z,101537.56
2022-10-04T15:51:42.435Z,101529.69
2022-10-04T15:54:30.401Z,101524.47
2022-10-04T15:57:00.422Z,101533.41
2022-10-04T15:59:32.435Z,101531.69
2022-10-04T16:02:24.364Z,101543.31
2022-10-04T16:05:14.711Z,101532.69
2022-10-04T16:07:59.837Z,101534.53
2022-10-04T16:10:28.697Z,101539.94
2022-10-04T16:13:01.352Z,101553.28
2022-10-04T16:15:40.733Z,101545.38
2022-10-04T16:18:16.727Z,101543.63
2022-10-04T16:21:01.545Z,101538.31
2022-10-04T16:23:37.621Z,101537.50
2022-10-04T16:26:10.434Z,101541.09
2022-10-04T16:28:37.214Z,101545.63
2022-10-04T16:31:22.165Z,101550.06
2022-10-04T16:33:56.243Z,101545.72
2022-10-04T16:36:25.462Z,101544.00
2022-10-04T16:39:12.413Z,101532.53
2022-10-04T16:41:57.321Z,101535.22
2022-10-04T16:44:49.070Z,101536.16
2022-10-04T16:47:38.153Z,101536.19
2022-10-04T16:50:08.403Z,101536.25
2022-10-04T16:52:34.630Z,101537.16
2022-10-04T16:55:03.900Z,101530.06
2022-10-04T16:57:30.413Z,101516.84
2022-10-04T17:00:07.320Z,101515.97
2022-10-04T17:02:33.656Z,101509.81
2022-10-04T17:05:18.604Z,101513.38
2022-10-04T17:08:04.731Z,101515.16
2022-10-04T17:10:34.392Z,101510.75
2022-10-04T17:13:19.301Z,101509.00
2022-10-04T17:15:50.832Z,101531.13
2022-10-04T17:18:19.780Z,101537.34
2022-10-04T17:20:50.290Z,101536.44
2022-10-04T17:23:16.525Z,101532.88
2022-10-04T17:25:47.440Z,101540.00
2022-10-04T17:28:27.388Z,101530.25
2022-10-04T17:30:58.916Z,101532.00
2022-10-04T17:33:37.823Z,101549.72
2022-10-04T17:36:14.899Z,101537.34
2022-10-04T17:38:51.261Z,101535.59
2022-10-04T17:41:20.335Z,101536.47
2022-10-04T17:43:56.077Z,101533.81
2022-10-04T17:46:36.810Z,101536.47
2022-10-04T17:49:41.044Z,101534.72
2022-10-04T17:52:33.453Z,101532.06
2022-10-04T17:55:18.575Z,101546.22
2022-10-04T17:57:54.184Z,101549.75
2022-10-04T18:00:25.131Z,101542.69
2022-10-04T18:03:10.007Z,101552.41
2022-10-04T18:05:42.392Z,101548.88
2022-10-04T18:08:17.818Z,101560.41
2022-10-04T18:10:59.402Z,101558.63
2022-10-04T18:13:25.639Z,101546.22
2022-10-04T18:15:55.074Z,101538.28
2022-10-04T18:18:23.440Z,101527.66
2022-10-04T18:21:08.702Z,101515.28
2022-10-04T18:23:36.505Z,101512.63
2022-10-04T18:26:10.814Z,101511.75
2022-10-04T18:28:37.313Z,101500.25
2022-10-04T18:31:19.912Z,101490.53
2022-10-04T18:33:50.637Z,101488.75
2022-10-04T18:36:23.452Z,101485.22
2022-10-04T18:39:08.336Z,101477.28
2022-10-04T18:41:54.076Z,101481.66
2022-10-04T18:44:23.287Z,101471.97
2022-10-04T18:46:54.725Z,101480.78
2022-10-04T18:49:25.401Z,101486.09
2022-10-04T18:51:57.525Z,101501.16
2022-10-04T18:54:30.732Z,101511.75
2022-10-04T18:57:24.125Z,101530.28
2022-10-04T19:00:32.435Z,101532.97
2022-10-04T19:02:58.756Z,101521.47
2022-10-04T19:05:31.482Z,101539.13
2022-10-04T19:08:07.575Z,101547.97
2022-10-04T19:10:40.279Z,101538.25
2022-10-04T19:13:11.086Z,101543.56
2022-10-04T19:15:49.328Z,101539.13
2022-10-04T19:18:33.962Z,101530.25
2022-10-04T19:21:03.287Z,101516.09
2022-10-04T19:23:36.890Z,101518.75
2022-10-04T19:26:32.601Z,101512.56
2022-10-04T19:29:02.080Z,101507.28
2022-10-04T19:31:42.572Z,101509.03
2022-10-04T19:34:14.398Z,101513.47
2022-10-04T19:36:51.870Z,101516.09
2022-10-04T19:39:18.143Z,101531.09
2022-10-04T19:41:47.722Z,101531.09
2022-10-04T19:44:28.180Z,101534.63
2022-10-04T19:47:04.448Z,101532.88
2022-10-04T19:49:33.438Z,101539.03
2022-10-04T19:52:20.241Z,101537.25
2022-10-04T19:54:50.812Z,101532.84
2022-10-04T19:57:19.316Z,101530.19
2022-10-04T19:59:48.374Z,101521.34
2022-10-04T20:02:14.862Z,101519.59
2022-10-04T20:04:43.581Z,101516.94
2022-10-04T20:07:26.977Z,101505.47
2022-10-04T20:09:55.220Z,101509.84
2022-10-04T20:12:32.919Z,101506.34
2022-10-04T20:15:17.560Z,101515.16
2022-10-04T20:17:45.488Z,101503.69
2022-10-04T20:20:34.754Z,101516.06
2022-10-04T20:23:01.013Z,101521.34
2022-10-04T20:25:45.817Z,101521.38
2022-10-04T20:28:24.149Z,101515.19
2022-10-04T20:30:52.108Z,101500.16
2022-10-04T20:33:33.605Z,101494.88
2022-10-04T20:36:01.056Z,101490.44
2022-10-04T20:38:43.919Z,101496.66
2022-10-04T20:41:28.390Z,101498.41
2022-10-04T20:44:01.231Z,101501.97
2022-10-04T20:46:31.611Z,101493.13
2022-10-04T20:48:58.176Z,101490.47
2022-10-04T20:51:27.751Z,101494.03
2022-10-04T20:53:54.043Z,101488.75
2022-10-04T20:56:38.739Z,101477.28
2022-10-04T20:59:05.056Z,101470.19
2022-10-04T21:01:35.645Z,101465.78
2022-10-04T21:04:17.219Z,101454.25
2022-10-04T21:06:53.426Z,101456.00
2022-10-04T21:09:21.552Z,101466.63
2022-10-04T21:11:49.863Z,101464.88
2022-10-04T21:14:23.353Z,101475.47
2022-10-04T21:16:51.289Z,101489.66
2022-10-04T21:19:30.347Z,101496.72
2022-10-04T21:21:57.417Z,101500.25
2022-10-04T21:24:43.682Z,101491.41
2022-10-04T21:27:10.935Z,101478.13
2022-10-04T21:29:37.535Z,101482.56
2022-10-04T21:32:04.164Z,101478.13
2022-10-04T21:34:51.772Z,101486.09
2022-10-04T21:37:17.252Z,101487.88
2022-10-04T21:39:43.847Z,101482.56
2022-10-04T21:42:10.617Z,101479.03
2022-10-04T21:44:37.290Z,101468.41
2022-10-04T21:47:03.571Z,101465.75
2022-10-04T21:49:29.849Z,101459.59
2022-10-04T21:51:56.115Z,101468.41
2022-10-04T21:54:22.388Z,101471.06
2022-10-04T21:56:49.248Z,101462.25
2022-10-04T21:59:15.655Z,101467.53
2022-10-04T22:01:41.914Z,101465.75
2022-10-04T22:04:08.169Z,101462.22
2022-10-04T22:06:34.496Z,101463.97
2022-10-04T22:09:00.773Z,101456.03
2022-10-04T22:11:27.057Z,101454.28
2022-10-04T22:13:53.318Z,101453.38
2022-10-04T22:16:19.641Z,101442.75
2022-10-04T22:18:46.006Z,101443.66
2022-10-04T22:21:12.264Z,101438.38
2022-10-04T22:23:43.005Z,101440.13
2022-10-04T22:26:13.930Z,101425.97
2022-10-04T22:28:51.027Z,101417.13
2022-10-04T22:31:22.111Z,101410.94
2022-10-04T22:33:49.436Z,101409.16
2022-10-04T22:36:15.787Z,101408.28
2022-10-04T22:38:44.424Z,101402.09
2022-10-04T22:41:12.487Z,101406.50
2022-10-04T22:43:39.006Z,101403.84
2022-10-04T22:46:05.551Z,101402.97
2022-10-04T22:48:31.938Z,101402.97
2022-10-04T22:50:58.202Z,101402.94
2022-10-04T22:53:24.572Z,101395.88
2022-10-04T22:55:51.649Z,101394.97
2022-10-04T22:58:18.384Z,101397.63
2022-10-04T23:00:44.843Z,101403.81
2022-10-04T23:03:18.058Z,101393.22
2022-10-04T23:05:45.237Z,101399.38
2022-10-04T23:08:11.531Z,101393.19
2022-10-04T23:10:37.789Z,101388.78
2022-10-04T23:13:04.013Z,101399.38
2022-10-04T23:15:30.297Z,101404.69
2022-10-04T23:17:57.074Z,101405.56
2022-10-04T23:20:23.739Z,101390.53
2022-10-04T23:22:52.713Z,101388.78
2022-10-04T23:25:27.075Z,101395.84
2022-10-04T23:27:54.808Z,101391.41
2022-10-04T23:30:21.905Z,101385.22
2022-10-04T23:32:49.316Z,101383.47
2022-10-04T23:35:20.070Z,101387.91
2022-10-04T23:37:46.893Z,101380.84
2022-10-04T23:40:15.327Z,101381.72
2022-10-04T23:42:41.665Z,101377.28
2022-10-04T23:45:17.143Z,101375.53
2022-10-04T23:47:44.342Z,101374.69
2022-10-04T23:50:21.808Z,101370.22
2022-10-04T23:52:49.249Z,101375.53
2022-10-04T23:55:26.981Z,101364.06
2022-10-04T23:57:53.216Z,101361.41
